Time;durP1;ratioP1;P1;durP2;ratioP2;P2;SDS_P1;SDS_P2;PMS_P1;PMS_P2;Temp;Humidity;BMP_temperature;BMP_pressure;BME280_temperature;BME280_humidity;BME280_pressure;Samples;Min_cycle;Max_cycle;Signal;HPM_P1;HPM_P2
2021/03/05 00:00:20;;;;;;;10.80;8.38;;;2.60;99.90;;;;;;4843518;29;20409;-79
2021/03/05 00:02:46;;;;;;;9.07;7.80;;;2.60;99.90;;;;;;4817871;29;20425;-79
2021/03/05 00:05:12;;;;;;;8.33;7.37;;;2.60;99.90;;;;;;4846933;29;20915;-78
2021/03/05 00:07:38;;;;;;;7.87;7.07;;;2.60;99.90;;;;;;4834922;29;20423;-77
2021/03/05 00:10:09;;;;;;;8.13;6.60;;;2.60;99.90;;;;;;4820759;29;20414;-76
2021/03/05 00:12:35;;;;;;;8.27;7.15;;;2.70;99.90;;;;;;4831786;29;20424;-76
2021/03/05 00:15:02;;;;;;;8.90;7.43;;;2.70;99.90;;;;;;4825091;29;20426;-78
2021/03/05 00:17:28;;;;;;;8.82;7.30;;;2.70;99.90;;;;;;4813917;29;20424;-78
2021/03/05 00:20:16;;;;;;;8.20;6.97;;;2.60;99.90;;;;;;4849413;29;20509;-79
2021/03/05 00:22:41;;;;;;;8.57;6.75;;;2.60;99.90;;;;;;4830487;29;20414;-80
2021/03/05 00:25:08;;;;;;;7.63;6.67;;;2.50;99.90;;;;;;4837458;29;20446;-77
2021/03/05 00:27:33;;;;;;;8.00;6.43;;;2.60;99.90;;;;;;4831844;29;20425;-78
2021/03/05 00:29:59;;;;;;;6.80;6.10;;;2.60;99.90;;;;;;4811317;29;20418;-80
2021/03/05 00:32:25;;;;;;;7.50;6.73;;;2.70;99.90;;;;;;4831092;29;20497;-78
2021/03/05 00:34:51;;;;;;;8.68;7.05;;;2.80;99.90;;;;;;4846458;29;20429;-79
2021/03/05 00:37:16;;;;;;;8.35;6.07;;;2.60;99.90;;;;;;4831409;29;20502;-78
2021/03/05 00:39:42;;;;;;;7.75;6.30;;;2.60;99.90;;;;;;4847148;29;20417;-79
2021/03/05 00:42:08;;;;;;;7.80;6.17;;;2.60;99.90;;;;;;4832243;29;20493;-81
2021/03/05 00:44:34;;;;;;;6.45;5.82;;;2.60;99.90;;;;;;4840691;29;20507;-79
2021/03/05 00:46:59;;;;;;;6.75;6.00;;;2.70;99.90;;;;;;4837981;29;20417;-80
2021/03/05 00:49:25;;;;;;;7.13;6.43;;;2.60;99.90;;;;;;4833237;29;20414;-78
2021/03/05 00:51:51;;;;;;;6.85;5.70;;;2.60;99.90;;;;;;4828358;29;20476;-78
2021/03/05 00:54:20;;;;;;;6.15;5.45;;;2.60;99.90;;;;;;4845233;29;20799;-79
2021/03/05 00:56:46;;;;;;;6.70;5.95;;;2.60;99.90;;;;;;4830409;29;20409;-78
2021/03/05 00:59:11;;;;;;;5.97;5.38;;;2.60;99.90;;;;;;4841450;29;20478;-78
2021/03/05 01:01:37;;;;;;;7.57;6.18;;;2.60;99.90;;;;;;4839743;29;20510;-79
2021/03/05 01:04:03;;;;;;;6.45;5.85;;;2.50;99.90;;;;;;4831898;29;20436;-80
2021/03/05 01:06:37;;;;;;;7.25;6.20;;;2.60;99.90;;;;;;4829404;29;20555;-80
2021/03/05 01:09:08;;;;;;;5.70;5.10;;;2.60;99.90;;;;;;4832665;29;20429;-78
2021/03/05 01:11:34;;;;;;;7.17;5.67;;;2.60;99.90;;;;;;4828934;29;21045;-79
2021/03/05 01:14:00;;;;;;;8.30;5.72;;;2.60;99.90;;;;;;4855044;29;20429;-77
2021/03/05 01:16:25;;;;;;;6.60;5.93;;;2.60;99.90;;;;;;4831800;29;20505;-77
2021/03/05 01:18:51;;;;;;;6.70;5.97;;;2.60;99.90;;;;;;4850090;29;20512;-79
2021/03/05 01:21:17;;;;;;;7.40;6.60;;;2.60;99.90;;;;;;4836460;29;20441;-79
2021/03/05 01:23:43;;;;;;;6.17;5.60;;;2.60;99.90;;;;;;4852315;29;20521;-79
2021/03/05 01:26:10;;;;;;;7.68;6.85;;;2.60;99.90;;;;;;4836775;29;20418;-80
2021/03/05 01:28:36;;;;;;;6.68;6.03;;;2.50;99.90;;;;;;4838481;29;20429;-80
2021/03/05 01:31:02;;;;;;;7.68;6.03;;;2.50;99.90;;;;;;4834057;29;20430;-79
2021/03/05 01:33:28;;;;;;;6.25;5.35;;;2.50;99.90;;;;;;4857673;29;20409;-79
2021/03/05 01:35:53;;;;;;;7.70;5.60;;;2.50;99.90;;;;;;4834685;29;20441;-80
2021/03/05 01:38:19;;;;;;;6.13;5.53;;;2.50;99.90;;;;;;4849131;29;20462;-79
2021/03/05 01:40:45;;;;;;;8.87;5.77;;;2.50;99.90;;;;;;4835770;29;20418;-80
2021/03/05 01:43:15;;;;;;;6.07;5.50;;;2.50;99.90;;;;;;4850625;29;20410;-82
2021/03/05 01:45:41;;;;;;;7.80;6.03;;;2.50;99.90;;;;;;4849355;29;20937;-82
2021/03/05 01:48:17;;;;;;;5.53;4.97;;;2.50;99.90;;;;;;4856855;29;20423;-80
2021/03/05 01:51:01;;;;;;;6.97;4.75;;;2.50;99.90;;;;;;4835141;29;20422;-80
2021/03/05 01:53:28;;;;;;;3.95;3.53;;;2.30;99.90;;;;;;4840458;29;20510;-77
2021/03/05 01:55:54;;;;;;;3.47;3.17;;;2.30;99.90;;;;;;4856248;29;20404;-81
2021/03/05 01:58:21;;;;;;;2.60;2.40;;;2.20;99.90;;;;;;4857694;29;20421;-79
2021/03/05 02:00:52;;;;;;;2.70;2.50;;;2.20;99.90;;;;;;4851364;29;20409;-79
2021/03/05 02:03:18;;;;;;;2.40;2.20;;;2.20;99.90;;;;;;4850580;29;20417;-81
2021/03/05 02:05:43;;;;;;;2.20;2.00;;;2.10;99.90;;;;;;4820152;29;20420;-79
2021/03/05 02:08:10;;;;;;;2.23;1.93;;;2.10;99.90;;;;;;4840739;29;20458;-79
2021/03/05 02:10:36;;;;;;;1.80;1.70;;;2.20;99.90;;;;;;4826062;29;20466;-80
2021/03/05 02:13:01;;;;;;;2.03;1.93;;;2.10;99.90;;;;;;4842596;29;20955;-80
2021/03/05 02:15:27;;;;;;;2.00;1.80;;;2.10;99.90;;;;;;4835130;29;20460;-77
2021/03/05 02:18:33;;;;;;;1.77;1.67;;;2.10;99.90;;;;;;4839192;29;20409;-81
2021/03/05 02:21:15;;;;;;;2.03;1.93;;;2.00;99.90;;;;;;4843970;29;20430;-85
2021/03/05 02:23:57;;;;;;;3.10;2.20;;;2.00;99.90;;;;;;4854973;29;20822;-80
2021/03/05 02:26:52;;;;;;;2.42;2.22;;;2.00;99.90;;;;;;4867900;29;20436;-81
2021/03/05 02:29:35;;;;;;;2.27;2.07;;;2.00;99.90;;;;;;4861412;29;20406;-79
2021/03/05 02:32:07;;;;;;;2.30;2.10;;;2.00;99.90;;;;;;4864754;29;20430;-81
2021/03/05 02:34:35;;;;;;;2.55;2.35;;;2.00;99.90;;;;;;4859812;29;20418;-79
2021/03/05 02:37:10;;;;;;;3.15;2.85;;;2.00;99.90;;;;;;4855690;29;20412;-80
2021/03/05 02:39:38;;;;;;;2.70;2.50;;;2.00;99.90;;;;;;4826779;29;20418;-82
2021/03/05 02:42:06;;;;;;;3.35;3.05;;;1.90;99.90;;;;;;4856638;29;20418;-79
2021/03/05 02:44:33;;;;;;;4.25;3.22;;;1.90;99.90;;;;;;4857312;29;20912;-79
2021/03/05 02:47:01;;;;;;;3.08;2.78;;;1.90;99.90;;;;;;4826321;29;20412;-83
2021/03/05 02:49:28;;;;;;;3.50;3.20;;;1.90;99.90;;;;;;4845042;29;20776;-80
2021/03/05 02:51:55;;;;;;;3.20;2.90;;;1.90;99.90;;;;;;4861327;29;20410;-83
2021/03/05 02:54:21;;;;;;;3.33;3.03;;;1.90;99.90;;;;;;4849779;29;20951;-80
2021/03/05 02:56:46;;;;;;;3.88;3.10;;;1.80;99.90;;;;;;4853055;29;20500;-80
2021/03/05 02:59:12;;;;;;;5.05;3.42;;;1.90;99.90;;;;;;4860466;29;20841;-82
2021/03/05 03:01:38;;;;;;;3.20;2.90;;;1.80;99.90;;;;;;4842273;29;20404;-83
2021/03/05 03:04:04;;;;;;;4.50;3.40;;;1.80;99.90;;;;;;4849334;29;20938;-80
2021/03/05 03:06:30;;;;;;;4.20;3.28;;;1.80;99.90;;;;;;4847534;29;20533;-79
2021/03/05 03:08:57;;;;;;;3.97;3.20;;;1.70;99.90;;;;;;4854567;29;20918;-81
2021/03/05 03:11:22;;;;;;;3.38;3.08;;;1.80;99.90;;;;;;4854302;29;20781;-79
2021/03/05 03:13:48;;;;;;;3.72;3.20;;;1.70;99.90;;;;;;4837896;29;20429;-79
2021/03/05 03:16:15;;;;;;;3.60;3.30;;;1.70;99.90;;;;;;4851681;29;20792;-79
2021/03/05 03:18:41;;;;;;;3.65;3.20;;;1.80;99.90;;;;;;4838593;29;20422;-79
2021/03/05 03:21:07;;;;;;;3.55;3.22;;;1.70;99.90;;;;;;4839513;29;20478;-80
2021/03/05 03:23:33;;;;;;;5.23;3.30;;;1.80;99.90;;;;;;4838364;29;20427;-82
2021/03/05 03:25:59;;;;;;;3.15;2.85;;;1.80;99.90;;;;;;4853101;29;20493;-78
2021/03/05 03:28:25;;;;;;;3.38;3.08;;;1.70;99.90;;;;;;4837282;29;21010;-77
2021/03/05 03:30:50;;;;;;;3.03;2.77;;;1.80;99.90;;;;;;4852515;29;20443;-79
2021/03/05 03:33:17;;;;;;;3.23;2.93;;;1.80;99.90;;;;;;4861623;29;20935;-80
2021/03/05 03:35:43;;;;;;;3.13;2.92;;;1.80;99.90;;;;;;4870196;29;20460;-80
2021/03/05 03:38:09;;;;;;;3.50;3.20;;;1.80;99.90;;;;;;4836158;29;20457;-77
2021/03/05 03:40:35;;;;;;;3.50;3.05;;;2.00;99.90;;;;;;4851838;29;20486;-78
2021/03/05 03:43:02;;;;;;;4.93;3.15;;;1.80;99.90;;;;;;4851700;29;20522;-78
2021/03/05 03:45:29;;;;;;;3.50;3.20;;;1.80;99.90;;;;;;4835535;29;20486;-77
2021/03/05 03:47:55;;;;;;;3.85;3.45;;;1.80;99.90;;;;;;4837024;29;20911;-78
2021/03/05 03:50:40;;;;;;;3.63;3.33;;;1.70;99.90;;;;;;4852561;29;20429;-78
2021/03/05 03:53:13;;;;;;;3.65;3.30;;;1.70;99.90;;;;;;4840464;29;20418;-76
2021/03/05 03:55:39;;;;;;;3.30;3.00;;;1.70;99.90;;;;;;4858745;29;20432;-79
2021/03/05 03:58:05;;;;;;;3.42;3.03;;;1.70;99.90;;;;;;4850748;29;20784;-76
2021/03/05 04:00:31;;;;;;;3.07;2.70;;;1.60;99.90;;;;;;4836127;29;20766;-81
2021/03/05 04:02:57;;;;;;;3.35;3.05;;;1.60;99.90;;;;;;4823583;29;20480;-78
2021/03/05 04:05:25;;;;;;;3.03;2.70;;;1.50;99.90;;;;;;4847774;29;20401;-76
2021/03/05 04:07:50;;;;;;;3.00;2.72;;;1.50;99.90;;;;;;4861207;29;20809;-75
2021/03/05 04:10:16;;;;;;;2.90;2.50;;;1.50;99.90;;;;;;4851866;29;20425;-78
2021/03/05 04:12:42;;;;;;;3.30;2.53;;;1.30;99.90;;;;;;4851538;29;20422;-76
2021/03/05 04:15:09;;;;;;;2.97;2.43;;;1.30;99.90;;;;;;4851840;29;20494;-77
2021/03/05 04:17:34;;;;;;;2.55;2.35;;;1.20;99.90;;;;;;4850406;29;20414;-80
2021/03/05 04:20:00;;;;;;;2.53;2.30;;;1.20;99.90;;;;;;4861769;23;20467;-82
2021/03/05 04:22:26;;;;;;;4.28;2.25;;;1.20;99.90;;;;;;4887624;29;22958;-80
2021/03/05 04:24:52;;;;;;;2.47;2.23;;;1.10;99.90;;;;;;4884231;29;20410;-78
2021/03/05 04:27:17;;;;;;;2.38;2.17;;;1.10;99.90;;;;;;4896775;29;20777;-78
2021/03/05 04:29:43;;;;;;;2.40;2.20;;;1.10;99.90;;;;;;4902921;29;20476;-79
2021/03/05 04:32:09;;;;;;;2.67;2.47;;;1.00;99.90;;;;;;4908171;29;20400;-78
2021/03/05 04:34:35;;;;;;;2.40;2.20;;;0.80;99.90;;;;;;4890743;29;20425;-78
2021/03/05 04:37:00;;;;;;;3.03;2.45;;;0.90;99.90;;;;;;4913267;29;20530;-78
2021/03/05 04:39:26;;;;;;;2.40;2.15;;;0.90;99.90;;;;;;4893733;29;20418;-77
2021/03/05 04:41:52;;;;;;;2.10;1.97;;;0.80;99.90;;;;;;4883722;29;20410;-78
2021/03/05 04:44:17;;;;;;;2.43;2.23;;;0.70;99.90;;;;;;4881097;29;20422;-78
2021/03/05 04:46:43;;;;;;;2.30;2.10;;;0.80;99.90;;;;;;4898038;29;20965;-78
2021/03/05 04:49:09;;;;;;;2.35;2.15;;;0.70;99.90;;;;;;4884076;29;20501;-79
2021/03/05 04:51:34;;;;;;;3.40;2.40;;;0.70;99.90;;;;;;4886396;29;20418;-77
2021/03/05 04:54:00;;;;;;;3.88;2.30;;;0.70;99.90;;;;;;4887964;29;20440;-79
2021/03/05 04:56:26;;;;;;;2.50;2.30;;;0.70;99.90;;;;;;4887901;29;20846;-78
2021/03/05 04:58:52;;;;;;;2.05;1.95;;;0.60;99.90;;;;;;4901516;29;20405;-78
2021/03/05 05:01:17;;;;;;;2.80;2.40;;;0.60;99.90;;;;;;4882750;29;20388;-79
2021/03/05 05:03:43;;;;;;;4.53;2.30;;;0.60;99.90;;;;;;4888134;29;20442;-80
2021/03/05 05:06:10;;;;;;;3.58;2.65;;;0.60;99.90;;;;;;4880329;29;20422;-80
2021/03/05 05:08:35;;;;;;;4.03;2.50;;;0.40;99.90;;;;;;4905874;29;20408;-79
2021/03/05 05:11:01;;;;;;;5.50;2.80;;;0.30;99.90;;;;;;4905398;29;20785;-78
2021/03/05 05:13:27;;;;;;;2.58;2.33;;;0.10;99.90;;;;;;4887600;29;20421;-78
2021/03/05 05:15:53;;;;;;;2.00;1.90;;;0.10;99.90;;;;;;4886157;29;20487;-79
2021/03/05 05:19:12;;;;;;;2.25;2.08;;;0.10;99.90;;;;;;4901196;29;20405;-79
2021/03/05 05:36:09;;;;;;;3.00;2.40;;;-0.20;99.90;;;;;;4903606;29;20455;-83
2021/03/05 05:38:46;;;;;;;2.92;2.70;;;-0.40;99.90;;;;;;5211895;23;20413;-79
2021/03/05 05:41:12;;;;;;;3.50;2.47;;;-0.30;99.90;;;;;;4931991;29;20429;-82
2021/03/05 05:43:38;;;;;;;2.25;2.05;;;-0.30;99.90;;;;;;4929531;29;20401;-82
2021/03/05 05:46:05;;;;;;;3.40;2.30;;;-0.30;99.90;;;;;;4931814;29;20762;-82
2021/03/05 05:48:31;;;;;;;3.80;2.63;;;-0.30;99.90;;;;;;4913165;29;20495;-82
2021/03/05 05:50:57;;;;;;;2.77;2.37;;;-0.30;99.90;;;;;;4913532;29;20409;-79
2021/03/05 05:53:23;;;;;;;3.47;2.60;;;-0.40;99.90;;;;;;4916937;29;20440;-80
2021/03/05 05:55:49;;;;;;;3.28;2.60;;;-0.50;99.90;;;;;;4917373;29;20437;-80
2021/03/05 05:58:15;;;;;;;3.15;2.50;;;-0.50;99.90;;;;;;4916857;29;20401;-80
2021/03/05 06:00:41;;;;;;;2.88;2.63;;;-0.50;99.90;;;;;;4916466;29;20469;-80
2021/03/05 06:03:07;;;;;;;3.30;2.30;;;-0.60;99.90;;;;;;4918176;29;20409;-80
2021/03/05 06:05:33;;;;;;;2.45;2.25;;;-0.60;99.90;;;;;;4925122;29;20430;-79
2021/03/05 06:07:59;;;;;;;2.77;2.40;;;-0.70;99.90;;;;;;4923598;29;20414;-80
2021/03/05 06:10:25;;;;;;;2.42;2.22;;;-0.70;99.90;;;;;;4931414;29;20433;-80
2021/03/05 06:12:51;;;;;;;2.50;2.30;;;-0.70;99.90;;;;;;4915251;29;20401;-79
2021/03/05 06:15:17;;;;;;;2.90;2.20;;;-0.70;99.90;;;;;;4912698;29;20838;-79
2021/03/05 06:17:47;;;;;;;2.60;2.20;;;-0.70;99.90;;;;;;4913585;29;20417;-79
2021/03/05 06:20:13;;;;;;;3.65;2.60;;;-0.70;99.90;;;;;;4930161;29;20490;-79
2021/03/05 06:22:39;;;;;;;2.88;2.08;;;-0.70;99.90;;;;;;4910494;29;20437;-79
2021/03/05 06:25:06;;;;;;;2.40;2.20;;;-0.80;99.90;;;;;;4913633;29;20440;-79
2021/03/05 06:27:32;;;;;;;3.03;2.40;;;-0.80;99.90;;;;;;4913891;29;20405;-79
2021/03/05 06:29:58;;;;;;;2.97;2.30;;;-0.70;99.90;;;;;;4933694;28;20429;-79
2021/03/05 06:32:37;;;;;;;3.35;2.47;;;-0.70;99.90;;;;;;4937153;28;20409;-79
2021/03/05 06:35:03;;;;;;;2.30;2.10;;;-0.80;99.90;;;;;;4914275;29;20425;-79
2021/03/05 06:37:41;;;;;;;2.50;2.30;;;-0.70;99.90;;;;;;4944383;28;20404;-79
2021/03/05 06:40:10;;;;;;;2.45;2.25;;;-0.70;99.90;;;;;;4898535;29;20416;-80
2021/03/05 06:42:52;;;;;;;2.55;2.03;;;-0.70;99.90;;;;;;4912593;29;20909;-78
2021/03/05 06:45:20;;;;;;;2.87;2.40;;;-0.70;99.90;;;;;;4891619;29;20414;-78
2021/03/05 06:48:05;;;;;;;4.07;2.38;;;-0.60;99.90;;;;;;4912295;29;20409;-78
2021/03/05 06:50:38;;;;;;;2.53;2.30;;;-0.60;99.90;;;;;;4913263;29;20405;-79
2021/03/05 06:53:20;;;;;;;3.63;2.25;;;-0.60;99.90;;;;;;4912845;29;20743;-79
2021/03/05 06:55:45;;;;;;;2.47;2.28;;;-0.50;99.90;;;;;;4900164;29;20423;-78
2021/03/05 06:58:11;;;;;;;4.32;2.88;;;-0.50;99.90;;;;;;4898701;29;20476;-78
2021/03/05 07:00:37;;;;;;;2.70;2.50;;;-0.50;99.90;;;;;;4930034;29;20454;-78
2021/03/05 07:03:20;;;;;;;2.73;2.43;;;-0.50;99.90;;;;;;4911847;29;20413;-78
2021/03/05 07:05:55;;;;;;;3.05;2.65;;;-0.40;99.90;;;;;;4915063;29;20417;-78
2021/03/05 07:08:39;;;;;;;2.65;2.40;;;-0.40;99.90;;;;;;4904359;29;20892;-78
2021/03/05 07:11:09;;;;;;;2.30;1.90;;;-0.40;99.90;;;;;;4892923;29;20413;-78
2021/03/05 07:13:50;;;;;;;4.30;2.50;;;-0.30;99.90;;;;;;4915172;29;20881;-78
2021/03/05 07:16:16;;;;;;;3.47;2.67;;;-0.30;99.90;;;;;;4892031;29;20439;-78
2021/03/05 07:18:42;;;;;;;3.70;2.73;;;-0.30;99.90;;;;;;4906743;29;20421;-78
2021/03/05 07:21:09;;;;;;;5.32;3.10;;;-0.30;99.90;;;;;;4910977;29;20408;-78
2021/03/05 07:23:35;;;;;;;2.95;2.17;;;-0.20;99.90;;;;;;4904627;29;20408;-78
2021/03/05 07:26:01;;;;;;;2.22;2.08;;;-0.20;99.90;;;;;;4911729;29;20401;-78
2021/03/05 07:28:26;;;;;;;2.40;2.20;;;-0.20;99.90;;;;;;4913564;29;20485;-78
2021/03/05 07:30:52;;;;;;;2.45;2.15;;;-0.10;99.90;;;;;;4919728;28;20410;-78
2021/03/05 07:33:18;;;;;;;1.83;1.73;;;0.00;99.90;;;;;;4913932;29;20910;-79
2021/03/05 07:35:43;;;;;;;3.07;2.17;;;0.00;99.90;;;;;;4920386;29;20484;-78
2021/03/05 07:38:14;;;;;;;3.42;2.42;;;0.10;99.90;;;;;;4916258;29;20499;-79
2021/03/05 07:40:45;;;;;;;2.33;2.13;;;0.20;99.90;;;;;;4910262;29;20504;-80
2021/03/05 07:43:10;;;;;;;5.63;2.73;;;0.20;99.90;;;;;;4909643;29;20409;-80
2021/03/05 07:45:36;;;;;;;2.63;2.23;;;0.30;99.90;;;;;;4908590;29;20417;-80
2021/03/05 07:48:03;;;;;;;6.13;2.45;;;0.30;99.90;;;;;;4905249;29;20432;-79
2021/03/05 07:50:29;;;;;;;2.22;1.98;;;0.40;99.90;;;;;;4910885;29;20495;-79
2021/03/05 07:52:58;;;;;;;2.00;1.80;;;0.50;99.90;;;;;;4925408;29;20409;-80
2021/03/05 07:55:53;;;;;;;2.42;1.65;;;0.60;99.90;;;;;;4910199;29;20409;-77
2021/03/05 07:58:54;;;;;;;2.17;1.80;;;0.70;99.90;;;;;;4865828;29;20401;-77
2021/03/05 08:01:50;;;;;;;2.15;1.80;;;0.70;99.90;;;;;;4829968;29;20416;-78
2021/03/05 08:04:15;;;;;;;1.48;1.38;;;0.70;99.90;;;;;;4879038;29;20417;-82
2021/03/05 08:06:41;;;;;;;1.87;1.63;;;0.80;99.90;;;;;;4917725;28;20399;-81
2021/03/05 08:09:07;;;;;;;1.77;1.30;;;0.80;99.90;;;;;;4910991;29;20418;-79
2021/03/05 08:11:38;;;;;;;1.40;1.30;;;0.80;99.90;;;;;;4910875;29;20412;-76
2021/03/05 08:14:19;;;;;;;2.25;1.30;;;0.90;99.90;;;;;;4923093;28;20808;-77
2021/03/05 08:16:48;;;;;;;1.10;1.10;;;0.90;99.90;;;;;;4924729;29;20787;-77
2021/03/05 08:19:15;;;;;;;1.55;1.38;;;1.00;99.90;;;;;;4909898;29;20980;-78
2021/03/05 08:22:01;;;;;;;2.80;1.60;;;1.00;99.90;;;;;;4911400;29;20401;-80
2021/03/05 08:24:30;;;;;;;3.08;1.50;;;1.20;99.90;;;;;;4910472;29;20425;-79
2021/03/05 08:27:05;;;;;;;1.75;1.20;;;1.20;99.90;;;;;;4912502;29;20440;-80
2021/03/05 08:29:50;;;;;;;2.20;1.30;;;1.20;99.90;;;;;;4928388;29;20409;-80
2021/03/05 08:32:31;;;;;;;1.70;1.40;;;1.30;99.90;;;;;;4928727;29;20405;-80
2021/03/05 08:34:57;;;;;;;1.20;1.10;;;1.40;99.90;;;;;;4944378;28;20493;-79
2021/03/05 08:37:30;;;;;;;1.70;1.20;;;1.40;99.90;;;;;;4930205;29;20805;-79
2021/03/05 08:40:24;;;;;;;2.22;1.55;;;1.50;99.90;;;;;;4928711;29;20880;-80
2021/03/05 08:42:52;;;;;;;1.77;1.60;;;1.50;99.90;;;;;;4893370;29;20403;-79
2021/03/05 08:45:18;;;;;;;1.57;1.30;;;1.50;99.90;;;;;;4900742;29;20856;-80
2021/03/05 08:47:48;;;;;;;2.93;1.30;;;1.60;99.90;;;;;;4929259;29;20412;-80
2021/03/05 08:50:16;;;;;;;1.42;1.10;;;1.70;99.90;;;;;;4898439;29;21191;-80
2021/03/05 08:52:44;;;;;;;1.10;1.10;;;1.70;99.90;;;;;;4932128;29;20409;-80
2021/03/05 08:55:10;;;;;;;1.13;1.02;;;1.80;99.90;;;;;;4920927;29;20427;-79
2021/03/05 08:57:42;;;;;;;1.20;1.10;;;1.90;99.90;;;;;;4915761;29;20404;-79
2021/03/05 09:00:18;;;;;;;1.30;1.20;;;1.90;99.90;;;;;;4914171;29;20401;-80
2021/03/05 09:02:46;;;;;;;1.30;1.17;;;2.00;99.90;;;;;;4939696;28;20405;-79
2021/03/05 09:05:13;;;;;;;1.00;1.00;;;2.10;99.90;;;;;;4921515;29;20454;-81
2021/03/05 09:07:47;;;;;;;1.30;1.10;;;2.20;99.90;;;;;;4927795;29;20916;-80
2021/03/05 09:10:13;;;;;;;1.00;1.00;;;2.20;99.90;;;;;;4917594;28;20407;-80
2021/03/05 09:12:56;;;;;;;1.10;1.10;;;2.30;99.90;;;;;;4930827;29;20483;-80
2021/03/05 09:15:25;;;;;;;0.98;0.98;;;2.30;99.90;;;;;;4926996;29;20409;-80
2021/03/05 09:17:51;;;;;;;2.40;1.00;;;2.40;99.90;;;;;;4912052;29;20500;-79
2021/03/05 09:20:16;;;;;;;0.90;0.90;;;2.50;99.90;;;;;;4928989;29;20484;-80
2021/03/05 09:22:42;;;;;;;0.97;0.97;;;2.60;99.90;;;;;;4929884;29;20424;-82
2021/03/05 09:25:10;;;;;;;0.98;0.98;;;2.70;99.90;;;;;;4913964;29;20405;-79
2021/03/05 09:27:37;;;;;;;1.02;0.95;;;2.80;99.90;;;;;;4933743;29;20449;-79
2021/03/05 09:30:22;;;;;;;0.80;0.80;;;2.90;99.90;;;;;;4914355;29;20925;-80
2021/03/05 09:32:51;;;;;;;0.80;0.80;;;3.00;99.90;;;;;;4912830;29;20421;-80
2021/03/05 09:35:27;;;;;;;0.80;0.80;;;3.20;99.90;;;;;;4938229;28;20482;-80
2021/03/05 09:37:53;;;;;;;0.80;0.80;;;3.30;99.90;;;;;;4923051;29;20439;-80
2021/03/05 09:40:18;;;;;;;3.10;1.05;;;3.50;99.90;;;;;;4917996;29;20409;-80
2021/03/05 09:42:45;;;;;;;0.90;0.90;;;3.60;99.90;;;;;;4934813;29;20412;-80
2021/03/05 09:45:12;;;;;;;1.70;1.50;;;3.80;99.90;;;;;;4929122;29;20401;-81
2021/03/05 09:47:50;;;;;;;0.93;0.93;;;3.90;99.90;;;;;;4894486;29;20489;-80
2021/03/05 09:50:20;;;;;;;4.55;1.50;;;4.00;99.90;;;;;;4922728;29;20408;-81
2021/03/05 09:52:46;;;;;;;2.20;1.40;;;4.20;99.90;;;;;;4910210;29;20401;-81
2021/03/05 09:55:30;;;;;;;7.00;3.20;;;4.10;99.90;;;;;;4929720;29;21200;-80
2021/03/05 09:58:09;;;;;;;2.22;2.03;;;3.80;99.90;;;;;;4927407;29;20490;-81
2021/03/05 10:00:35;;;;;;;4.93;2.65;;;3.70;99.90;;;;;;4906530;28;20403;-80
2021/03/05 10:03:02;;;;;;;4.47;2.10;;;3.60;99.90;;;;;;4932362;28;20484;-81
2021/03/05 10:05:28;;;;;;;2.22;1.90;;;3.70;99.90;;;;;;4937126;28;20429;-80
2021/03/05 10:07:53;;;;;;;2.75;1.15;;;3.90;99.90;;;;;;4940985;28;20411;-78
2021/03/05 10:10:19;;;;;;;1.00;1.00;;;4.20;99.90;;;;;;4947518;28;20407;-80
2021/03/05 10:12:54;;;;;;;0.83;0.83;;;4.50;99.90;;;;;;4921865;29;20922;-80
2021/03/05 10:15:20;;;;;;;2.20;1.10;;;4.60;99.90;;;;;;4895529;29;20417;-78
2021/03/05 10:17:46;;;;;;;2.42;1.70;;;4.80;99.90;;;;;;4912857;29;20413;-79
2021/03/05 10:20:12;;;;;;;2.03;1.60;;;4.80;99.90;;;;;;4928900;29;20416;-78
2021/03/05 10:22:38;;;;;;;1.00;1.00;;;4.70;99.90;;;;;;4912941;29;20405;-79
2021/03/05 10:25:05;;;;;;;0.93;0.93;;;4.60;99.90;;;;;;4913420;29;20406;-78
2021/03/05 10:27:43;;;;;;;1.02;0.90;;;4.40;99.90;;;;;;4917362;29;20508;-78
2021/03/05 10:30:09;;;;;;;0.90;0.90;;;4.50;99.90;;;;;;4906517;28;20505;-78
2021/03/05 10:32:37;;;;;;;0.97;0.93;;;4.70;99.90;;;;;;4917751;29;20469;-78
2021/03/05 10:35:10;;;;;;;1.00;0.90;;;5.00;99.90;;;;;;4926839;29;20424;-80
2021/03/05 10:37:37;;;;;;;2.33;1.40;;;4.90;99.90;;;;;;4905823;28;20487;-78
2021/03/05 10:40:04;;;;;;;1.08;0.93;;;4.80;99.90;;;;;;4901002;29;20944;-78
2021/03/05 10:42:30;;;;;;;0.88;0.88;;;4.70;99.90;;;;;;4913539;29;20409;-78
2021/03/05 10:44:56;;;;;;;3.23;1.93;;;4.60;99.90;;;;;;4911887;29;20477;-78
2021/03/05 10:47:22;;;;;;;2.60;1.60;;;4.30;99.90;;;;;;4914131;29;20420;-78
2021/03/05 10:49:48;;;;;;;1.13;1.10;;;4.50;99.90;;;;;;4911099;29;20409;-78
2021/03/05 10:52:16;;;;;;;1.15;1.08;;;4.90;99.90;;;;;;4922903;29;20408;-79
2021/03/05 10:54:43;;;;;;;1.20;1.10;;;5.10;99.90;;;;;;4912322;29;20425;-77
2021/03/05 10:57:15;;;;;;;1.02;1.00;;;5.40;99.90;;;;;;4924529;29;21082;-78
2021/03/05 10:59:41;;;;;;;2.13;1.88;;;5.80;99.90;;;;;;4916692;29;20399;-80
2021/03/05 11:02:07;;;;;;;2.53;1.90;;;5.90;99.90;;;;;;4915074;29;20405;-80
2021/03/05 11:04:34;;;;;;;1.90;1.70;;;5.60;99.90;;;;;;4913201;28;20440;-79
2021/03/05 11:06:59;;;;;;;1.48;1.30;;;5.20;99.90;;;;;;4925575;29;20464;-78
2021/03/05 11:09:26;;;;;;;1.25;1.15;;;5.10;99.90;;;;;;4937992;28;20874;-81
2021/03/05 11:11:52;;;;;;;1.10;1.10;;;5.10;99.90;;;;;;4910509;29;20501;-79
2021/03/05 11:14:17;;;;;;;0.90;0.90;;;5.70;99.90;;;;;;4925119;29;20488;-81
2021/03/05 11:16:43;;;;;;;0.80;0.80;;;6.00;99.90;;;;;;4931976;29;20396;-79
2021/03/05 11:19:09;;;;;;;1.00;1.00;;;6.20;99.90;;;;;;4929562;29;20476;-80
2021/03/05 11:21:35;;;;;;;1.20;1.00;;;6.20;99.90;;;;;;4921643;29;20417;-79
2021/03/05 11:24:01;;;;;;;1.38;1.08;;;6.30;99.90;;;;;;4916766;29;20402;-78
2021/03/05 11:26:26;;;;;;;2.13;1.30;;;6.30;99.90;;;;;;4911535;29;20520;-77
2021/03/05 11:28:52;;;;;;;1.30;1.20;;;6.00;99.90;;;;;;4933781;28;20399;-79
2021/03/05 11:31:18;;;;;;;3.65;2.08;;;6.00;99.90;;;;;;4931798;28;20445;-80
2021/03/05 11:33:45;;;;;;;1.10;0.90;;;6.50;99.90;;;;;;4910227;29;20497;-78
2021/03/05 11:36:11;;;;;;;1.27;1.17;;;7.10;99.90;;;;;;4926824;29;20847;-78
2021/03/05 11:38:41;;;;;;;1.38;1.17;;;7.10;99.90;;;;;;4926131;29;20409;-81
2021/03/05 11:41:07;;;;;;;2.10;1.90;;;6.50;99.90;;;;;;4908789;29;20407;-81
2021/03/05 11:43:32;;;;;;;4.70;1.67;;;6.40;99.90;;;;;;4911555;29;20488;-78
2021/03/05 11:45:58;;;;;;;1.33;1.23;;;6.10;99.90;;;;;;4911852;29;20416;-78
2021/03/05 11:48:24;;;;;;;1.88;1.48;;;6.60;99.90;;;;;;4911898;29;20404;-80
2021/03/05 11:50:50;;;;;;;2.90;1.50;;;7.20;99.90;;;;;;4911749;29;20401;-80
2021/03/05 11:53:15;;;;;;;1.27;1.10;;;8.00;99.90;;;;;;4928373;29;20409;-80
2021/03/05 11:55:41;;;;;;;1.83;1.27;;;8.30;97.40;;;;;;4913320;29;20538;-79
2021/03/05 11:58:07;;;;;;;1.42;1.33;;;8.30;97.70;;;;;;4909479;29;20984;-78
2021/03/05 12:00:33;;;;;;;1.33;1.23;;;7.80;95.70;;;;;;4933443;28;20414;-81
2021/03/05 12:02:59;;;;;;;1.50;1.40;;;7.50;98.50;;;;;;4927038;29;21168;-80
2021/03/05 12:05:25;;;;;;;1.53;1.43;;;7.20;96.70;;;;;;4917055;29;21162;-83
2021/03/05 12:07:51;;;;;;;1.45;1.35;;;7.20;96.30;;;;;;4929186;28;20397;-82
2021/03/05 12:10:16;;;;;;;1.55;1.45;;;7.70;99.90;;;;;;4910331;29;20416;-79
2021/03/05 12:12:42;;;;;;;1.50;1.40;;;7.80;94.70;;;;;;4916850;29;20410;-78
2021/03/05 12:15:08;;;;;;;1.50;1.27;;;7.60;96.40;;;;;;4897012;29;20973;-83
2021/03/05 12:17:34;;;;;;;1.40;1.30;;;7.40;95.60;;;;;;4911673;28;20419;-82
2021/03/05 12:19:59;;;;;;;1.30;1.20;;;7.70;98.10;;;;;;4897438;29;20986;-82
2021/03/05 12:22:25;;;;;;;1.40;1.30;;;8.30;91.40;;;;;;4902811;29;20409;-81
2021/03/05 12:24:51;;;;;;;1.33;1.30;;;9.20;97.60;;;;;;4937395;29;20397;-82
2021/03/05 12:27:17;;;;;;;1.50;1.40;;;9.90;94.60;;;;;;4907521;29;20463;-81
2021/03/05 12:29:42;;;;;;;2.80;1.40;;;10.10;91.70;;;;;;4912033;29;20482;-81
2021/03/05 12:32:08;;;;;;;1.15;1.10;;;9.60;88.50;;;;;;4908547;29;20405;-80
2021/03/05 12:34:33;;;;;;;1.83;1.30;;;9.00;86.80;;;;;;4930910;29;20413;-82
2021/03/05 12:37:01;;;;;;;1.30;1.20;;;8.40;90.10;;;;;;4896939;29;20409;-81
2021/03/05 12:39:27;;;;;;;1.30;1.20;;;7.80;90.30;;;;;;4911499;28;20421;-79
2021/03/05 12:41:52;;;;;;;1.30;1.20;;;8.00;95.90;;;;;;4905526;29;21258;-82
2021/03/05 12:44:18;;;;;;;1.38;1.27;;;8.50;92.00;;;;;;4908800;29;20410;-81
2021/03/05 12:46:44;;;;;;;1.50;1.40;;;8.80;90.10;;;;;;4912866;29;20888;-80
2021/03/05 12:49:09;;;;;;;1.70;1.10;;;9.30;92.50;;;;;;4942614;28;20404;-82
2021/03/05 12:51:35;;;;;;;1.03;1.03;;;9.50;91.00;;;;;;4930033;28;20400;-82
2021/03/05 12:54:01;;;;;;;0.90;0.90;;;9.30;88.90;;;;;;4924937;29;20426;-78
2021/03/05 12:56:26;;;;;;;1.00;1.00;;;8.70;83.70;;;;;;4921287;29;20420;-79
2021/03/05 12:58:52;;;;;;;1.10;1.10;;;8.50;82.80;;;;;;4934481;29;20420;-78
2021/03/05 13:01:19;;;;;;;0.80;0.80;;;8.70;90.90;;;;;;4934039;28;20393;-80
2021/03/05 13:03:45;;;;;;;1.00;1.00;;;9.00;90.10;;;;;;4936745;28;20472;-79
2021/03/05 13:06:11;;;;;;;0.88;0.88;;;9.30;90.00;;;;;;4931294;29;20445;-80
2021/03/05 13:08:37;;;;;;;1.27;1.17;;;9.50;89.30;;;;;;4918987;29;20399;-83
2021/03/05 13:11:03;;;;;;;1.03;0.90;;;10.00;79.20;;;;;;4938901;28;20455;-81
2021/03/05 13:13:28;;;;;;;2.58;0.98;;;9.90;80.00;;;;;;4920620;29;20477;-80
2021/03/05 13:15:54;;;;;;;1.05;1.05;;;9.90;78.00;;;;;;4919752;29;20998;-80